Aviation Digital Data Service (ADDS)

Output produced by METARs form (0743 UTC 20 January 2017)
found at http://aviationweather.gov/adds/metars/
 
KROC 200526Z 2006/2106 14004KT P6SM OVC015 
     FM201100 14006KT P6SM SCT010 BKN150 
     FM201700 15008KT P6SM OVC120 
     FM202100 14006KT 6SM -RA OVC040 
     FM210300 21005KT 4SM -DZ BR OVC007